createdAt,value
2018-05-07T00:01:57.739Z,91784.15
2018-05-07T00:04:30.186Z,91795.25
2018-05-07T00:07:05.905Z,91804.67
2018-05-07T00:09:38.379Z,91801.75
2018-05-07T00:12:10.846Z,91806.83
2018-05-07T00:14:43.099Z,91808.81
2018-05-07T00:17:16.575Z,91800.46
2018-05-07T00:19:49.016Z,91799.80
2018-05-07T00:22:21.296Z,91805.34
2018-05-07T00:24:53.781Z,91809.76
2018-05-07T00:27:26.119Z,91802.59
2018-05-07T00:29:58.677Z,91779.41
2018-05-07T00:32:34.166Z,91787.27
2018-05-07T00:35:06.555Z,91785.04
2018-05-07T00:37:41.879Z,91785.59
2018-05-07T00:40:14.340Z,91768.22
2018-05-07T00:42:46.659Z,91769.00
2018-05-07T00:45:19.035Z,91776.37
2018-05-07T00:47:51.709Z,91779.61
2018-05-07T00:50:24.202Z,91782.45
2018-05-07T00:52:59.693Z,91772.50
2018-05-07T00:55:32.126Z,91776.28
2018-05-07T00:58:04.491Z,91772.81
2018-05-07T01:00:36.857Z,91774.61
2018-05-07T01:03:12.276Z,91772.67
2018-05-07T01:05:44.597Z,91783.27
2018-05-07T01:08:17.198Z,91782.32
2018-05-07T01:10:49.569Z,91783.81
2018-05-07T01:13:25.144Z,91782.20
2018-05-07T01:15:57.660Z,91781.59
2018-05-07T01:18:33.139Z,91779.61
2018-05-07T01:21:05.565Z,91776.37
2018-05-07T01:23:38.132Z,91765.69
2018-05-07T01:26:10.687Z,91764.44
2018-05-07T01:28:43.042Z,91759.38
2018-05-07T01:31:18.875Z,91764.77
2018-05-07T01:33:54.593Z,91764.13
2018-05-07T01:36:26.961Z,91767.52
2018-05-07T01:39:02.713Z,91781.29
2018-05-07T01:41:35.103Z,91773.22
2018-05-07T01:44:10.536Z,91768.23
2018-05-07T01:46:43.028Z,91775.15
2018-05-07T01:49:18.543Z,91764.03
2018-05-07T01:51:50.966Z,91759.02
2018-05-07T01:54:26.489Z,91770.38
2018-05-07T01:56:58.958Z,91774.92
2018-05-07T01:59:31.229Z,91771.25
2018-05-07T02:02:03.575Z,91770.14
2018-05-07T02:04:36.077Z,91765.95
2018-05-07T02:07:08.403Z,91764.80
2018-05-07T02:09:43.808Z,91765.16
2018-05-07T02:12:16.247Z,91766.70
2018-05-07T02:14:48.800Z,91759.28
2018-05-07T02:17:21.146Z,91766.12
2018-05-07T02:19:53.687Z,91766.94
2018-05-07T02:22:26.164Z,91765.22
2018-05-07T02:25:01.748Z,91763.55
2018-05-07T02:27:34.256Z,91756.48
2018-05-07T02:30:09.892Z,91754.94
2018-05-07T02:32:45.560Z,91756.73
2018-05-07T02:35:18.169Z,91770.53
2018-05-07T02:37:50.623Z,91774.70
2018-05-07T02:40:23.003Z,91764.70
2018-05-07T02:42:55.293Z,91768.16
2018-05-07T02:45:27.779Z,91778.87
2018-05-07T02:48:00.243Z,91762.09
2018-05-07T02:50:32.903Z,91760.81
2018-05-07T02:53:05.367Z,91771.64
2018-05-07T02:55:40.910Z,91773.13
2018-05-07T02:58:13.344Z,91771.05
2018-05-07T03:00:48.827Z,91767.98
2018-05-07T03:03:21.249Z,91768.23
2018-05-07T03:05:56.953Z,91772.85
2018-05-07T03:08:29.346Z,91776.05
2018-05-07T03:11:01.816Z,91778.79
2018-05-07T03:13:34.151Z,91777.20
2018-05-07T03:16:09.830Z,91776.36
2018-05-07T03:18:42.194Z,91779.73
2018-05-07T03:21:17.729Z,91787.22
2018-05-07T03:23:50.048Z,91793.86
2018-05-07T03:26:22.448Z,91793.55
2018-05-07T03:28:54.966Z,91798.98
2018-05-07T03:31:27.277Z,91820.30
2018-05-07T03:34:02.745Z,91821.94
2018-05-07T03:36:38.217Z,91818.13
2018-05-07T03:39:10.553Z,91828.25
2018-05-07T03:41:46.176Z,91819.01
2018-05-07T03:44:18.624Z,91828.94
2018-05-07T03:46:50.971Z,91832.75
2018-05-07T03:49:23.338Z,91827.58
2018-05-07T03:51:58.748Z,91821.08
2018-05-07T03:54:31.199Z,91820.52
2018-05-07T03:57:06.569Z,91822.43
2018-05-07T03:59:39.096Z,91821.52
2018-05-07T04:02:11.537Z,91825.87
2018-05-07T04:04:43.965Z,91820.81
2018-05-07T04:07:19.821Z,91819.28
2018-05-07T04:09:52.187Z,91823.13
2018-05-07T04:12:27.880Z,91817.63
2018-05-07T04:15:00.264Z,91831.37
2018-05-07T04:17:47.916Z,91833.91
2018-05-07T04:20:32.371Z,91838.75
2018-05-07T04:23:16.816Z,91844.98
2018-05-07T04:25:49.389Z,91844.39
2018-05-07T04:28:24.837Z,91835.68
2018-05-07T04:30:57.290Z,91842.44
2018-05-07T04:33:32.959Z,91843.67
2018-05-07T04:36:10.251Z,91850.78
2018-05-07T04:38:45.958Z,91858.24
2018-05-07T04:41:18.309Z,91857.59
2018-05-07T04:43:50.577Z,91863.76
2018-05-07T04:46:22.998Z,91862.77
2018-05-07T04:48:58.633Z,91861.59
2018-05-07T04:51:31.033Z,91867.05
2018-05-07T04:54:03.575Z,91867.47
2018-05-07T04:56:35.831Z,91867.00
2018-05-07T04:59:11.468Z,91870.70
2018-05-07T05:01:43.877Z,91866.64
2018-05-07T05:04:16.177Z,91871.58
2018-05-07T05:06:48.600Z,91866.94
2018-05-07T05:09:21.059Z,91868.81
2018-05-07T05:11:53.459Z,91874.66
2018-05-07T05:14:28.962Z,91875.09
2018-05-07T05:17:01.381Z,91872.64
2018-05-07T05:19:37.272Z,91873.52
2018-05-07T05:22:09.884Z,91883.39
2018-05-07T05:24:42.365Z,91885.51
2018-05-07T05:27:14.810Z,91886.63
2018-05-07T05:29:47.169Z,91890.20
2018-05-07T05:32:19.503Z,91892.05
2018-05-07T05:34:52.076Z,91891.34
2018-05-07T05:37:29.307Z,91886.69
2018-05-07T05:40:04.777Z,91891.92
2018-05-07T05:42:37.269Z,91885.02
2018-05-07T05:45:12.911Z,91884.27
2018-05-07T05:47:45.467Z,91888.63
2018-05-07T05:50:21.119Z,91884.90
2018-05-07T05:52:53.412Z,91887.67
2018-05-07T05:55:28.797Z,91881.80
2018-05-07T05:58:01.285Z,91884.97
2018-05-07T06:00:36.716Z,91884.67
2018-05-07T06:03:09.151Z,91884.80
2018-05-07T06:05:41.779Z,91887.86
2018-05-07T06:08:14.201Z,91890.50
2018-05-07T06:10:46.596Z,91891.84
2018-05-07T06:13:18.909Z,91896.92
2018-05-07T06:15:54.348Z,91898.45
2018-05-07T06:18:26.853Z,91898.95
2018-05-07T06:21:02.482Z,91905.83
2018-05-07T06:23:34.803Z,91905.99
2018-05-07T06:26:07.326Z,91902.45
2018-05-07T06:28:39.856Z,91902.31
2018-05-07T06:31:15.205Z,91905.04
2018-05-07T06:33:47.703Z,91900.03
2018-05-07T06:36:20.055Z,91907.92
2018-05-07T06:38:52.681Z,91910.27
2018-05-07T06:41:25.305Z,91908.58
2018-05-07T06:43:57.841Z,91907.92
2018-05-07T06:46:30.295Z,91905.50
2018-05-07T06:49:02.794Z,91897.91
2018-05-07T06:51:38.361Z,91905.61
2018-05-07T06:54:10.691Z,91902.22
2018-05-07T06:56:46.501Z,91901.19
2018-05-07T06:59:18.991Z,91893.63
2018-05-07T07:01:51.428Z,91892.04
2018-05-07T07:04:24.653Z,91893.34
2018-05-07T07:07:00.299Z,91898.95
2018-05-07T07:09:32.651Z,91899.95
2018-05-07T07:12:08.105Z,91895.03
2018-05-07T07:14:40.721Z,91899.33
2018-05-07T07:17:16.235Z,91895.91
2018-05-07T07:19:48.722Z,91892.50
2018-05-07T07:22:21.083Z,91898.73
2018-05-07T07:24:53.507Z,91901.42
2018-05-07T07:27:29.009Z,91901.75
2018-05-07T07:30:01.453Z,91893.38
2018-05-07T07:32:36.947Z,91888.47
2018-05-07T07:35:09.345Z,91890.02
2018-05-07T07:37:47.585Z,91887.60
2018-05-07T07:40:23.227Z,91887.22
2018-05-07T07:42:55.793Z,91889.19
2018-05-07T07:45:28.286Z,91884.53
2018-05-07T07:48:04.100Z,91880.75
2018-05-07T07:50:36.549Z,91884.13
2018-05-07T07:53:08.943Z,91881.45
2018-05-07T07:55:41.223Z,91886.69
2018-05-07T07:58:16.966Z,91890.23
2018-05-07T08:00:49.387Z,91886.56
2018-05-07T08:03:24.973Z,91887.76
2018-05-07T08:05:57.440Z,91890.97
2018-05-07T08:08:32.989Z,91888.66
2018-05-07T08:11:05.555Z,91893.91
2018-05-07T08:13:41.195Z,91895.44
2018-05-07T08:16:13.736Z,91897.23
2018-05-07T08:18:52.264Z,91896.36
2018-05-07T08:21:24.554Z,91898.84
2018-05-07T08:23:59.878Z,91902.91
2018-05-07T08:26:32.171Z,91899.99
2018-05-07T08:29:07.898Z,91899.50
2018-05-07T08:31:40.235Z,91901.78
2018-05-07T08:34:12.767Z,91894.39
2018-05-07T08:36:45.379Z,91894.77
2018-05-07T08:39:20.923Z,91894.44
2018-05-07T08:41:58.229Z,91896.10
2018-05-07T08:44:33.794Z,91892.77
2018-05-07T08:47:06.168Z,91892.42
2018-05-07T08:49:38.644Z,91889.39
2018-05-07T08:52:11.066Z,91887.03
2018-05-07T08:54:46.704Z,91889.86
2018-05-07T08:57:19.123Z,91885.08
2018-05-07T08:59:51.425Z,91878.28
2018-05-07T09:02:23.956Z,91876.14
2018-05-07T09:04:56.244Z,91876.03
2018-05-07T09:07:28.716Z,91872.83
2018-05-07T09:10:01.180Z,91877.23
2018-05-07T09:12:33.465Z,91874.08
2018-05-07T09:15:06.038Z,91871.70
2018-05-07T09:17:38.543Z,91875.63
2018-05-07T09:20:10.895Z,91883.86
2018-05-07T09:22:43.602Z,91884.34
2018-05-07T09:25:15.928Z,91890.69
2018-05-07T09:27:48.196Z,91893.03
2018-05-07T09:30:20.550Z,91898.22
2018-05-07T09:32:53.065Z,91900.66
2018-05-07T09:35:28.705Z,91904.83
2018-05-07T09:38:01.059Z,91895.88
2018-05-07T09:40:36.837Z,91894.55
2018-05-07T09:43:09.453Z,91895.48
2018-05-07T09:45:45.234Z,91896.89
2018-05-07T09:48:17.802Z,91886.06
2018-05-07T09:50:50.044Z,91883.22
2018-05-07T09:53:22.327Z,91885.56
2018-05-07T09:55:57.835Z,91884.17
2018-05-07T09:58:30.196Z,91877.22
2018-05-07T10:01:02.793Z,91876.30
2018-05-07T10:03:35.128Z,91870.30
2018-05-07T10:06:13.768Z,91878.80
2018-05-07T10:08:48.116Z,91872.85
2018-05-07T10:11:26.103Z,91870.39
2018-05-07T10:13:58.584Z,91860.64
2018-05-07T10:16:31.194Z,91860.94
2018-05-07T10:19:03.629Z,91871.30
2018-05-07T10:21:42.444Z,91870.55
2018-05-07T10:24:15.042Z,91862.43
2018-05-07T10:26:47.528Z,91868.20
2018-05-07T10:29:19.811Z,91870.38
2018-05-07T10:31:55.457Z,91869.05
2018-05-07T10:34:27.882Z,91876.36
2018-05-07T10:37:00.412Z,91878.63
2018-05-07T10:39:40.617Z,91881.83
2018-05-07T10:42:13.404Z,91888.02
2018-05-07T10:44:49.170Z,91886.50
2018-05-07T10:47:21.866Z,91887.07
2018-05-07T10:49:54.432Z,91888.51
2018-05-07T10:52:35.148Z,91892.36
2018-05-07T10:55:10.605Z,91892.73
2018-05-07T10:57:49.858Z,91897.19
2018-05-07T11:00:22.471Z,91901.80
2018-05-07T11:02:58.226Z,91895.48
2018-05-07T11:05:34.413Z,91896.45
2018-05-07T11:08:06.913Z,91891.23
2018-05-07T11:10:39.338Z,91892.60
2018-05-07T11:13:14.984Z,91891.75
2018-05-07T11:15:47.392Z,91886.77
2018-05-07T11:18:23.224Z,91888.28
2018-05-07T11:20:55.631Z,91889.72
2018-05-07T11:23:34.506Z,91886.41
2018-05-07T11:26:07.058Z,91883.04
2018-05-07T11:28:39.818Z,91878.67
2018-05-07T11:31:12.502Z,91876.77
2018-05-07T11:33:47.988Z,91876.63
2018-05-07T11:36:20.602Z,91865.77
2018-05-07T11:38:47.109Z,91866.81
2018-05-07T11:41:13.526Z,91863.34
2018-05-07T11:43:43.173Z,91865.90
2018-05-07T11:46:09.678Z,91854.34
2018-05-07T11:48:36.071Z,91858.78
2018-05-07T11:51:02.413Z,91852.95
2018-05-07T11:53:28.739Z,91845.59
2018-05-07T11:55:55.148Z,91840.23
2018-05-07T11:58:21.452Z,91842.01
2018-05-07T12:00:50.856Z,91836.82
2018-05-07T12:03:20.255Z,91835.99
2018-05-07T12:05:46.569Z,91833.97
2018-05-07T12:08:12.881Z,91828.81
2018-05-07T12:10:39.254Z,91831.15
2018-05-07T12:13:05.559Z,91824.06
2018-05-07T12:15:31.868Z,91820.66
2018-05-07T12:18:01.360Z,91812.09
2018-05-07T12:20:27.696Z,91806.64
2018-05-07T12:22:58.651Z,91801.45
2018-05-07T12:25:34.354Z,91789.16
2018-05-07T12:28:05.752Z,91789.31
2018-05-07T12:30:35.417Z,91781.58
2018-05-07T12:33:06.256Z,91778.20
2018-05-07T12:35:33.273Z,91777.92
2018-05-07T12:38:02.806Z,91766.55
2018-05-07T12:40:32.439Z,91769.30
2018-05-07T12:42:59.116Z,91771.55
2018-05-07T12:45:25.847Z,91760.62
2018-05-07T12:47:52.895Z,91768.05
2018-05-07T12:50:19.622Z,91763.47
2018-05-07T12:52:52.559Z,91758.55
2018-05-07T12:55:18.961Z,91760.60
2018-05-07T12:57:45.277Z,91754.38
2018-05-07T13:00:14.783Z,91754.25
2018-05-07T13:02:41.135Z,91753.24
2018-05-07T13:05:07.471Z,91744.91
2018-05-07T13:07:33.845Z,91757.03
2018-05-07T13:10:00.190Z,91744.28
2018-05-07T13:12:26.532Z,91743.38
2018-05-07T13:14:59.013Z,91733.29
2018-05-07T13:17:25.359Z,91737.67
2018-05-07T13:19:51.699Z,91730.82
2018-05-07T13:22:21.187Z,91727.16
2018-05-07T13:24:50.933Z,91719.91
2018-05-07T13:27:17.224Z,91724.33
2018-05-07T13:29:43.675Z,91730.91
2018-05-07T13:32:16.647Z,91728.42
2018-05-07T13:34:43.143Z,91727.11
2018-05-07T13:37:12.591Z,91717.50
2018-05-07T13:39:38.928Z,91722.09
2018-05-07T13:42:05.281Z,91720.30
2018-05-07T13:44:31.724Z,91710.08
2018-05-07T13:46:58.080Z,91714.33
2018-05-07T13:49:30.671Z,91712.36
2018-05-07T13:52:00.125Z,91712.55
2018-05-07T13:54:26.467Z,91705.33
2018-05-07T13:56:56.556Z,91705.03
2018-05-07T13:59:22.991Z,91701.88
2018-05-07T14:01:54.447Z,91691.15
2018-05-07T14:04:21.893Z,91691.06
2018-05-07T14:09:28.645Z,91692.64
2018-05-07T14:11:54.952Z,91684.75
2018-05-07T14:14:21.388Z,91687.96
2018-05-07T14:16:47.876Z,91679.13
2018-05-07T14:19:14.175Z,91673.92
2018-05-07T14:21:43.576Z,91671.81
2018-05-07T14:24:09.920Z,91675.52
2018-05-07T14:26:36.233Z,91673.31
2018-05-07T14:29:02.693Z,91669.51
2018-05-07T14:31:29.021Z,91668.74
2018-05-07T14:33:55.354Z,91666.70
2018-05-07T14:36:21.718Z,91672.02
2018-05-07T14:38:48.104Z,91664.28
2018-05-07T14:41:14.422Z,91667.53
2018-05-07T14:43:43.848Z,91663.50
2018-05-07T14:46:10.195Z,91662.34
2018-05-07T14:48:36.541Z,91659.41
2018-05-07T14:51:10.788Z,91656.11
2018-05-07T14:53:37.103Z,91656.25
2018-05-07T14:56:03.458Z,91653.07
2018-05-07T14:58:29.829Z,91651.05
2018-05-07T15:00:59.208Z,91646.20
2018-05-07T15:03:25.586Z,91649.86
2018-05-07T15:05:52.050Z,91648.45
2018-05-07T15:08:18.370Z,91651.47
2018-05-07T15:10:44.731Z,91646.13
2018-05-07T15:13:14.366Z,91652.39
2018-05-07T15:15:43.986Z,91646.20
2018-05-07T15:18:13.419Z,91637.98
2018-05-07T15:20:43.099Z,91647.34
2018-05-07T15:23:09.452Z,91646.65
2018-05-07T15:25:35.769Z,91643.41
2018-05-07T15:28:08.240Z,91638.92
2018-05-07T15:30:34.587Z,91639.01
2018-05-07T15:33:00.918Z,91637.20
2018-05-07T15:35:27.351Z,91634.43
2018-05-07T15:37:53.939Z,91635.89
2018-05-07T15:40:20.259Z,91633.77
2018-05-07T15:42:46.654Z,91634.95
2018-05-07T15:45:12.989Z,91629.57
2018-05-07T15:47:39.304Z,91623.20
2018-05-07T15:50:08.942Z,91618.69
2018-05-07T15:52:40.312Z,91613.69
2018-05-07T15:55:06.627Z,91616.02
2018-05-07T15:57:36.226Z,91616.55
2018-05-07T16:00:02.608Z,91617.13
2018-05-07T16:02:28.943Z,91618.31
2018-05-07T16:04:55.344Z,91621.34
2018-05-07T16:07:21.702Z,91626.42
2018-05-07T16:09:48.047Z,91631.90
2018-05-07T16:12:17.808Z,91630.56
2018-05-07T16:14:44.125Z,91634.19
2018-05-07T16:17:10.482Z,91636.72
2018-05-07T16:19:36.911Z,91645.41
2018-05-07T16:22:03.435Z,91643.03
2018-05-07T16:24:29.626Z,91642.82
2018-05-07T16:26:59.293Z,91641.05
2018-05-07T16:29:25.654Z,91642.09
2018-05-07T16:31:51.999Z,91645.73
2018-05-07T16:34:18.379Z,91642.34
2018-05-07T16:36:44.742Z,91641.24
2018-05-07T16:39:11.067Z,91646.05
2018-05-07T16:41:37.472Z,91649.33
2018-05-07T16:44:03.810Z,91659.20
2018-05-07T16:46:30.188Z,91659.55
2018-05-07T16:48:56.581Z,91657.34
2018-05-07T16:51:22.892Z,91659.13
2018-05-07T16:53:53.947Z,91655.98
2018-05-07T16:56:20.371Z,91652.88
2018-05-07T16:58:46.731Z,91658.73
2018-05-07T17:01:13.144Z,91663.52
2018-05-07T17:03:42.606Z,91665.40
2018-05-07T17:06:08.925Z,91665.61
2018-05-07T17:08:35.290Z,91664.66
2018-05-07T17:11:04.976Z,91670.40
2018-05-07T17:13:31.349Z,91673.10
2018-05-07T17:58:12.804Z,91719.72
2018-05-07T18:00:39.165Z,91726.00
2018-05-07T18:03:05.528Z,91718.81
2018-05-07T18:05:35.272Z,91715.62
2018-05-07T18:08:01.718Z,91728.03
2018-05-07T18:10:28.183Z,91720.13
2018-05-07T18:13:00.638Z,91723.72
2018-05-07T18:15:27.006Z,91718.34
2018-05-07T18:17:59.125Z,91727.41
2018-05-07T18:20:25.619Z,91721.88
2018-05-07T18:22:52.000Z,91726.77
2018-05-07T18:25:18.411Z,91730.09
2018-05-07T18:27:44.816Z,91731.94
2018-05-07T18:30:11.163Z,91730.57
2018-05-07T18:32:37.498Z,91730.36
2018-05-07T18:35:03.972Z,91742.67
2018-05-07T18:37:30.357Z,91740.87
2018-05-07T18:39:56.707Z,91737.87
2018-05-07T18:42:23.439Z,91746.56
2018-05-07T18:44:49.847Z,91737.73
2018-05-07T18:47:16.221Z,91734.33
2018-05-07T18:49:42.616Z,91737.75
2018-05-07T18:52:09.172Z,91735.12
2018-05-07T18:54:38.866Z,91735.77
2018-05-07T18:57:11.409Z,91733.35
2018-05-07T18:59:49.419Z,91737.27
2018-05-07T19:02:25.199Z,91736.17
2018-05-07T19:04:57.678Z,91734.97
2018-05-07T19:07:33.325Z,91734.71
2018-05-07T19:10:05.691Z,91739.33
2018-05-07T19:12:41.463Z,91730.45
2018-05-07T19:15:13.940Z,91729.05
2018-05-07T19:17:53.032Z,91731.36
2018-05-07T19:20:25.533Z,91728.52
2018-05-07T19:22:58.126Z,91732.72
2018-05-07T19:25:30.582Z,91734.98
2018-05-07T19:28:03.094Z,91735.67
2018-05-07T19:30:35.585Z,91733.74
2018-05-07T19:33:11.085Z,91735.89
2018-05-07T19:35:43.556Z,91728.26
2018-05-07T19:38:16.073Z,91735.84
2018-05-07T19:40:48.645Z,91736.13
2018-05-07T19:43:20.942Z,91732.66
2018-05-07T19:45:53.200Z,91730.05
2018-05-07T19:48:28.925Z,91738.13
2018-05-07T19:51:04.660Z,91742.30
2018-05-07T19:53:40.339Z,91737.09
2018-05-07T19:56:12.905Z,91740.02
2018-05-07T19:58:45.329Z,91737.31
2018-05-07T20:01:21.124Z,91739.00
2018-05-07T20:03:53.605Z,91734.75
2018-05-07T20:06:26.049Z,91731.25
2018-05-07T20:08:58.665Z,91729.60
2018-05-07T20:11:31.751Z,91718.51
2018-05-07T20:14:04.231Z,91719.56
2018-05-07T20:16:36.812Z,91718.88
2018-05-07T20:19:09.358Z,91722.19
2018-05-07T20:21:41.912Z,91717.34
2018-05-07T20:24:14.344Z,91718.27
2018-05-07T20:26:46.665Z,91721.92
2018-05-07T20:29:25.209Z,91711.13
2018-05-07T20:31:57.624Z,91706.63
2018-05-07T20:34:33.300Z,91713.18
2018-05-07T20:37:05.706Z,91714.88
2018-05-07T20:39:37.958Z,91717.56
2018-05-07T20:42:10.292Z,91725.27
2018-05-07T20:44:42.778Z,91721.34
2018-05-07T20:47:15.018Z,91726.75
2018-05-07T20:49:50.617Z,91722.03
2018-05-07T20:52:22.927Z,91720.59
2018-05-07T20:54:55.233Z,91717.77
2018-05-07T20:57:27.733Z,91721.66
2018-05-07T21:00:03.101Z,91723.00
2018-05-07T21:02:35.684Z,91726.80
2018-05-07T21:05:11.305Z,91726.50
2018-05-07T21:07:43.721Z,91727.33
2018-05-07T21:10:19.235Z,91723.10
2018-05-07T21:12:51.692Z,91725.23
2018-05-07T21:15:27.239Z,91721.48
2018-05-07T21:17:59.599Z,91721.70
2018-05-07T21:20:35.011Z,91729.96
2018-05-07T21:23:07.482Z,91725.05
2018-05-07T21:25:43.181Z,91727.62
2018-05-07T21:28:15.462Z,91723.87
2018-05-07T21:30:47.827Z,91728.28
2018-05-07T21:33:20.176Z,91724.59
2018-05-07T21:35:55.747Z,91730.73
2018-05-07T21:38:28.052Z,91730.64
2018-05-07T21:41:06.635Z,91731.13
2018-05-07T21:43:38.977Z,91729.11
2018-05-07T21:46:11.360Z,91731.31
2018-05-07T21:48:44.609Z,91733.29
2018-05-07T21:51:17.109Z,91730.08
2018-05-07T21:53:49.416Z,91727.38
2018-05-07T21:56:24.770Z,91733.03
2018-05-07T21:58:57.221Z,91732.60
2018-05-07T22:01:29.466Z,91730.62
2018-05-07T22:04:02.011Z,91730.91
2018-05-07T22:06:37.737Z,91725.75
2018-05-07T22:09:10.740Z,91718.48
2018-05-07T22:11:46.479Z,91715.06
2018-05-07T22:14:18.855Z,91710.32
2018-05-07T22:16:54.287Z,91706.80
2018-05-07T22:19:26.649Z,91708.23
2018-05-07T22:22:02.110Z,91709.15
2018-05-07T22:24:34.535Z,91712.64
2018-05-07T22:27:09.934Z,91711.35
2018-05-07T22:29:42.430Z,91709.45
2018-05-07T22:32:14.789Z,91702.25
2018-05-07T22:34:47.153Z,91707.73
2018-05-07T22:37:22.622Z,91699.64
2018-05-07T22:39:55.071Z,91706.28
2018-05-07T22:42:30.914Z,91693.26
2018-05-07T22:45:03.421Z,91693.63
2018-05-07T22:47:38.851Z,91694.60
2018-05-07T22:50:11.354Z,91697.73
2018-05-07T22:52:43.709Z,91694.10
2018-05-07T22:55:19.094Z,91697.45
2018-05-07T22:57:51.471Z,91690.94
2018-05-07T23:00:23.698Z,91690.42
2018-05-07T23:02:59.115Z,91679.92
2018-05-07T23:05:34.807Z,91680.39
2018-05-07T23:08:10.481Z,91681.49
2018-05-07T23:10:43.005Z,91679.20
2018-05-07T23:13:15.265Z,91680.14
2018-05-07T23:15:47.499Z,91676.57
2018-05-07T23:18:19.774Z,91671.59
2018-05-07T23:20:52.134Z,91674.47
2018-05-07T23:23:27.931Z,91669.48
2018-05-07T23:26:00.458Z,91668.84
2018-05-07T23:28:35.829Z,91666.78
2018-05-07T23:31:08.255Z,91667.91
2018-05-07T23:33:43.878Z,91660.56
2018-05-07T23:36:16.251Z,91663.27
2018-05-07T23:38:48.630Z,91661.27
2018-05-07T23:41:20.962Z,91663.55
2018-05-07T23:43:56.750Z,91659.39
2018-05-07T23:46:29.147Z,91656.11
2018-05-07T23:49:04.566Z,91657.34
2018-05-07T23:51:36.966Z,91661.63
2018-05-07T23:54:12.691Z,91655.17
2018-05-07T23:56:45.144Z,91656.63
2018-05-07T23:59:17.650Z,91653.34
